TNCCSVMC

Guest
Details From TNCC - Curacao Hato
To SVMC - LA CHINITA INTL
Flight Number -
Tags decoded
Created
Modified
Stats Distance 221 nm / 409 km
Max Altitude 0 ft / 0 m
Waypoints 6
Social Downloads 6
Likes 0
Share VATSIM

Download

Looking for another format? Having issues loading an existing format? Contact us
Advertisement - Login to hide

Notes

Requested: TNCC PJG08 ALCOT MADNO BURGA SVMC

Route

TNCC PJG08 ALCOT MADNO BURGA SVMC

ID Type Via Altitude Latitude Longitude Leg Dist Tot Dist Heading (true) Name
O TNCC APT - 0 ft / 0 m 12.18885˚ -68.95980˚ - 0 nm - Curacao Hato
PJG08 FIX - 0 ft / 0 m 12.22907˚ -69.14282˚ 11 nm 11 nm 283° / 283° -
ALCOT FIX - 0 ft / 0 m 11.91139˚ -69.26028˚ 20 nm 31 nm 200° / 200° -
MADNO FIX - 0 ft / 0 m 10.64975˚ -70.40036˚ 101 nm 132 nm 222° / 221° -
BURGA FIX - 0 ft / 0 m 10.33308˚ -70.68869˚ 25 nm 158 nm 222° / 222° -
O SVMC APT - 0 ft / 0 m 10.55821˚ -71.72786˚ 62 nm 220 nm 283° / 282° LA CHINITA INTL

Altitude Profile

Advertisement - Login to hide

Weather


0- 5 10 15 20 25 30 35+ Temperature / ° C

Clouds and Precipitation
Forecast for 2017-12-16 12:00 UTC. Updated 21 minutes ago

Ground ~20,000 ft ~40,000 ft Winds

TNCC

Details ICAO TNCC (CUR)
Name Curacao Hato
Region Caribbean Netherlands, Aruba, Curaçao, Sint Maarten
Timezone Unknown (UTC+0.0)
Stats Elevation 29 ft / 9 m (AMSL)
Location 12.188853° -68.959803°
Runways 1
Magnetic Variation 11.331° W

METAR

TNCC 161100Z 11009KT 9999 FEW018 27/22 Q1014 NOSIG

Decode

TAF

Not found

Departure Runways

ID Width Length Bearing (true) Bearing (mag) Surface Threshold Offset Overrun Length
11 197 ft / 60 m 11,197 ft / 3,413 m 102.24° 113.57° Asphalt 300 ft / 91 m 0 ft / 0 m
29 197 ft / 60 m 11,197 ft / 3,413 m 282.24° 293.57° Asphalt 300 ft / 91 m 200 ft / 61 m

SVMC

Details ICAO SVMC (MAR)
Name LA CHINITA INTL
Region Venezuela
Timezone America/Caracas (UTC-4.0)
Stats Elevation 235 ft / 72 m (AMSL)
Location 10.558208° -71.727858°
Runways 2
Magnetic Variation 9.563° W

METAR

SVMC 161100Z 36002KT 9999 FEW013 22/21 Q1013

Decode

TAF

Not found

Destination Runways

ID Width Length Bearing (true) Bearing (mag) Surface Threshold Offset Overrun Length
02L 148 ft / 45 m 9,897 ft / 3,017 m 22.67° 32.23° Asphalt 0 ft / 0 m 125 ft / 38 m
02R 98 ft / 30 m 8,238 ft / 2,511 m 22.61° 32.17° Asphalt 0 ft / 0 m 0 ft / 0 m
20L 98 ft / 30 m 8,238 ft / 2,511 m 202.62° 212.18° Asphalt 0 ft / 0 m 0 ft / 0 m
20R 148 ft / 45 m 9,897 ft / 3,017 m 202.67° 212.23° Asphalt 0 ft / 0 m 985 ft / 300 m

Popular Alternatives